Port Penn, Delaware
Current Conditions -  °F | °C
As of 5:51 AM on Friday 28 Nov 2014 (Local Time) from KILG Reporting Station
Clear Clear  
Wind Chill: 26°   Ceiling: Unl
Heat Index: 32°   Visibility: 10mi
Dew Point: 22°   Wind: 7mph
Humidity: 66%   Direction: 270°W
Pressure: 30.18"   Gusts: NA
Location:  39.52°N, 75.58°W
Report Text: KILG 281051Z AUTO 27006KT 10SM CLR 00/M06 A3018 RMK AO2 SLP222 T00001056
Loading
Personal Weather Stations






























Interactive Weather Map New forecast layout! Learn more

10-Day Weather Forecast

Advertisements
Track Severe Weather on mobile